Time;durP1;ratioP1;P1;durP2;ratioP2;P2;SDS_P1;SDS_P2;PMS_P1;PMS_P2;Temp;Humidity;BMP_temperature;BMP_pressure;BME280_temperature;BME280_humidity;BME280_pressure;Samples;Min_cycle;Max_cycle;Signal;HPM_P1;HPM_P2
2021/12/30 00:01:23;;;;;;;50.43;22.53;;;3.50;99.90;;;;;;4190450;28;20787;-55
2021/12/30 00:03:24;;;;;;;57.40;21.77;;;3.50;99.90;;;;;;4189406;28;20257;-58
2021/12/30 00:05:25;;;;;;;51.93;21.83;;;3.50;99.90;;;;;;4190319;28;20266;-57
2021/12/30 00:07:28;;;;;;;49.13;21.63;;;3.50;99.90;;;;;;4189008;28;20331;-59
2021/12/30 00:09:29;;;;;;;62.97;21.70;;;3.50;99.90;;;;;;4190274;28;20281;-63
2021/12/30 00:11:30;;;;;;;54.73;21.43;;;3.50;99.90;;;;;;4189328;28;21242;-57
2021/12/30 00:13:32;;;;;;;49.70;19.90;;;3.50;99.90;;;;;;4190014;28;20741;-60
2021/12/30 00:15:33;;;;;;;51.03;21.70;;;3.50;99.90;;;;;;4189573;28;20363;-60
2021/12/30 00:17:34;;;;;;;54.90;20.23;;;3.50;99.90;;;;;;4189364;28;20308;-57
2021/12/30 00:19:35;;;;;;;53.17;19.27;;;3.50;99.90;;;;;;4189969;28;20694;-60
2021/12/30 00:21:37;;;;;;;43.77;18.57;;;3.50;99.90;;;;;;4189343;28;20761;-60
2021/12/30 00:23:38;;;;;;;42.50;16.60;;;3.50;99.90;;;;;;4190210;28;20836;-59
2021/12/30 00:25:41;;;;;;;46.80;18.97;;;3.50;99.90;;;;;;4189211;28;20790;-60
2021/12/30 00:27:42;;;;;;;38.43;16.13;;;3.50;99.90;;;;;;4190302;28;20323;-56
2021/12/30 00:29:44;;;;;;;39.00;16.57;;;3.50;99.90;;;;;;4188844;28;20696;-59
2021/12/30 00:31:45;;;;;;;41.03;18.20;;;3.50;99.90;;;;;;4190166;28;20335;-61
2021/12/30 00:33:46;;;;;;;43.60;18.13;;;3.50;99.90;;;;;;4189320;28;20269;-60
2021/12/30 00:35:48;;;;;;;53.67;20.47;;;3.50;99.90;;;;;;4190564;28;20266;-58
2021/12/30 00:37:49;;;;;;;50.43;19.67;;;3.50;99.90;;;;;;4189107;28;20327;-60
2021/12/30 00:39:50;;;;;;;41.33;16.00;;;3.50;99.90;;;;;;4190312;28;20985;-58
2021/12/30 00:41:51;;;;;;;36.13;15.20;;;3.50;99.90;;;;;;4189430;28;20269;-59
2021/12/30 00:43:52;;;;;;;42.93;16.00;;;3.40;99.90;;;;;;4189859;28;20277;-59
2021/12/30 00:45:53;;;;;;;41.00;17.33;;;3.50;99.90;;;;;;4189521;28;20363;-61
2021/12/30 00:47:55;;;;;;;39.73;17.40;;;3.40;99.90;;;;;;4189519;28;20334;-62
2021/12/30 00:49:56;;;;;;;40.97;16.90;;;3.40;99.90;;;;;;4189798;28;20277;-55
2021/12/30 00:51:57;;;;;;;40.03;15.63;;;3.40;99.90;;;;;;4189105;28;20664;-58
2021/12/30 00:53:59;;;;;;;35.17;15.07;;;3.40;99.90;;;;;;4190127;28;21344;-59
2021/12/30 00:56:00;;;;;;;39.10;15.33;;;3.40;99.90;;;;;;4188746;28;20322;-57
2021/12/30 00:58:03;;;;;;;40.07;15.50;;;3.40;99.90;;;;;;4192393;28;20599;-60
2021/12/30 01:00:07;;;;;;;37.20;16.40;;;3.40;99.90;;;;;;4191415;28;20787;-60
2021/12/30 01:02:08;;;;;;;37.13;15.50;;;3.40;99.90;;;;;;4192835;28;20262;-58
2021/12/30 01:04:10;;;;;;;39.17;15.13;;;3.40;99.90;;;;;;4191873;28;20871;-60
2021/12/30 01:06:11;;;;;;;33.13;15.10;;;3.30;99.90;;;;;;4193322;28;20863;-57
2021/12/30 01:08:12;;;;;;;35.20;14.33;;;3.30;99.90;;;;;;4191952;28;20269;-57
2021/12/30 01:10:17;;;;;;;39.83;15.43;;;3.30;99.90;;;;;;4193465;28;20249;-56
2021/12/30 01:12:19;;;;;;;38.60;15.40;;;3.30;99.90;;;;;;4191867;28;20811;-63
2021/12/30 01:14:24;;;;;;;33.80;14.47;;;3.30;99.90;;;;;;4192450;28;20254;-60
2021/12/30 01:16:29;;;;;;;42.67;14.77;;;3.30;99.90;;;;;;4191695;28;20315;-61
2021/12/30 01:18:42;;;;;;;38.70;15.67;;;3.30;99.90;;;;;;4192714;28;20293;-59
2021/12/30 01:20:43;;;;;;;34.03;14.03;;;3.30;99.90;;;;;;4191430;28;20339;-58
2021/12/30 01:22:47;;;;;;;38.33;14.50;;;3.30;99.90;;;;;;4192061;28;20269;-62
2021/12/30 01:24:49;;;;;;;38.30;15.50;;;3.30;99.90;;;;;;4191817;28;20551;-56
2021/12/30 01:26:51;;;;;;;40.43;16.50;;;3.30;99.90;;;;;;4191731;28;20300;-62
2021/12/30 01:28:52;;;;;;;45.90;17.50;;;3.30;99.90;;;;;;4191048;28;20266;-56
2021/12/30 01:30:55;;;;;;;40.13;16.23;;;3.40;99.90;;;;;;4191220;28;20310;-59
2021/12/30 01:32:56;;;;;;;42.50;17.97;;;3.40;99.90;;;;;;4192860;28;20807;-60
2021/12/30 01:34:57;;;;;;;42.70;16.43;;;3.40;99.90;;;;;;4191501;28;20311;-62
2021/12/30 01:37:04;;;;;;;41.57;16.83;;;3.40;99.90;;;;;;4192478;28;20273;-56
2021/12/30 01:39:05;;;;;;;40.80;16.87;;;3.40;99.90;;;;;;4191534;28;20293;-58
2021/12/30 01:41:08;;;;;;;44.43;16.30;;;3.40;99.90;;;;;;4192857;28;20278;-57
2021/12/30 01:43:11;;;;;;;40.90;16.87;;;3.50;99.90;;;;;;4191333;28;20696;-58
2021/12/30 01:45:12;;;;;;;44.07;17.23;;;3.50;99.90;;;;;;4192654;28;20323;-58
2021/12/30 01:47:14;;;;;;;46.17;17.57;;;3.40;99.90;;;;;;4191019;28;20277;-55
2021/12/30 01:49:15;;;;;;;43.87;17.40;;;3.40;99.90;;;;;;4192707;28;20737;-58
2021/12/30 01:51:16;;;;;;;51.37;19.20;;;3.50;99.90;;;;;;4190718;28;21218;-64
2021/12/30 01:53:18;;;;;;;47.73;18.50;;;3.50;99.90;;;;;;4191815;28;20269;-60
2021/12/30 01:55:21;;;;;;;41.17;18.23;;;3.50;99.90;;;;;;4190754;28;21200;-57
2021/12/30 01:57:22;;;;;;;44.33;17.20;;;3.60;99.90;;;;;;4192181;28;20269;-60
2021/12/30 01:59:24;;;;;;;49.90;18.43;;;3.60;99.90;;;;;;4191494;28;20297;-61
2021/12/30 02:01:26;;;;;;;43.80;19.53;;;3.60;99.90;;;;;;4191301;28;20273;-59
2021/12/30 02:03:28;;;;;;;49.90;17.10;;;3.60;99.90;;;;;;4192003;28;20269;-59
2021/12/30 02:05:29;;;;;;;49.53;18.17;;;3.50;99.90;;;;;;4191054;28;20319;-58
2021/12/30 02:07:31;;;;;;;51.73;17.53;;;3.50;99.90;;;;;;4192093;28;20319;-59
2021/12/30 02:09:32;;;;;;;43.93;17.67;;;3.60;99.90;;;;;;4190252;28;20319;-59
2021/12/30 02:11:34;;;;;;;46.93;17.93;;;3.60;99.90;;;;;;4192102;28;20973;-56
2021/12/30 02:13:35;;;;;;;48.60;17.90;;;3.60;99.90;;;;;;4190426;28;20761;-59
2021/12/30 02:15:36;;;;;;;45.70;17.77;;;3.50;99.90;;;;;;4191653;28;20331;-58
2021/12/30 02:17:38;;;;;;;41.20;16.97;;;3.60;99.90;;;;;;4190696;28;20261;-58
2021/12/30 02:19:40;;;;;;;45.30;18.53;;;3.60;99.90;;;;;;4192236;28;20297;-56
2021/12/30 02:21:41;;;;;;;47.87;17.93;;;3.60;99.90;;;;;;4190450;28;20646;-58
2021/12/30 02:23:42;;;;;;;44.70;17.47;;;3.50;99.90;;;;;;4191684;28;20793;-58
2021/12/30 02:25:44;;;;;;;41.67;17.47;;;3.50;99.90;;;;;;4190765;28;20273;-56
2021/12/30 02:27:45;;;;;;;41.00;17.17;;;3.50;99.90;;;;;;4191401;28;20323;-60
2021/12/30 02:29:46;;;;;;;46.23;18.27;;;3.50;99.90;;;;;;4191000;28;20311;-58
2021/12/30 02:31:48;;;;;;;43.13;17.07;;;3.50;99.90;;;;;;4191026;28;20261;-58
2021/12/30 02:33:49;;;;;;;42.60;17.73;;;3.50;99.90;;;;;;4191399;28;20315;-54
2021/12/30 02:35:51;;;;;;;38.27;16.03;;;3.60;99.90;;;;;;4190702;28;20276;-58
2021/12/30 02:37:52;;;;;;;38.17;16.60;;;3.60;99.90;;;;;;4191620;28;20347;-55
2021/12/30 02:39:54;;;;;;;38.27;16.23;;;3.60;99.90;;;;;;4190298;28;20289;-59
2021/12/30 02:41:55;;;;;;;43.93;17.57;;;3.60;99.90;;;;;;4191692;28;20269;-55
2021/12/30 02:43:56;;;;;;;39.53;16.10;;;3.60;99.90;;;;;;4189918;28;20261;-60
2021/12/30 02:45:59;;;;;;;36.87;16.77;;;3.50;99.90;;;;;;4190815;28;20779;-56
2021/12/30 02:48:01;;;;;;;46.87;17.00;;;3.50;99.90;;;;;;4190076;28;20269;-58
2021/12/30 02:50:03;;;;;;;44.63;17.03;;;3.50;99.90;;;;;;4191613;28;20338;-55
2021/12/30 02:52:04;;;;;;;43.80;18.13;;;3.50;99.90;;;;;;4190425;28;20261;-60
2021/12/30 02:54:05;;;;;;;41.50;15.87;;;3.50;99.90;;;;;;4191419;28;20270;-57
2021/12/30 02:56:07;;;;;;;44.17;16.77;;;3.50;99.90;;;;;;4190278;28;20386;-58
2021/12/30 02:58:08;;;;;;;39.90;16.90;;;3.50;99.90;;;;;;4191108;28;20734;-57
2021/12/30 03:00:10;;;;;;;43.40;15.53;;;3.50;99.90;;;;;;4190407;28;20350;-57
2021/12/30 03:02:11;;;;;;;40.80;15.97;;;3.50;99.90;;;;;;4190619;28;20300;-58
2021/12/30 03:04:12;;;;;;;40.37;15.37;;;3.60;99.90;;;;;;4190372;28;20599;-57
2021/12/30 03:06:15;;;;;;;41.67;15.20;;;3.60;99.90;;;;;;4190505;28;20326;-58
2021/12/30 03:08:17;;;;;;;35.47;14.43;;;3.60;99.90;;;;;;4190901;28;20335;-57
2021/12/30 03:10:21;;;;;;;34.73;14.03;;;3.60;99.90;;;;;;4189875;28;20277;-56
2021/12/30 03:12:22;;;;;;;34.80;15.47;;;3.60;99.90;;;;;;4190587;28;20265;-61
2021/12/30 03:14:25;;;;;;;35.77;14.33;;;3.50;99.90;;;;;;4189126;28;20291;-58
2021/12/30 03:16:32;;;;;;;34.63;13.90;;;3.50;99.90;;;;;;4190313;28;20692;-56
2021/12/30 03:18:35;;;;;;;34.80;14.80;;;3.50;99.90;;;;;;4190092;28;20331;-58
2021/12/30 03:20:36;;;;;;;32.20;14.47;;;3.50;99.90;;;;;;4190383;28;20327;-55
2021/12/30 03:22:40;;;;;;;31.03;14.10;;;3.50;99.90;;;;;;4189717;28;20346;-53
2021/12/30 03:24:41;;;;;;;33.03;15.07;;;3.50;99.90;;;;;;4189142;28;20342;-60
2021/12/30 03:26:42;;;;;;;31.50;13.87;;;3.50;99.90;;;;;;4189275;28;20270;-57
2021/12/30 03:28:44;;;;;;;34.30;13.97;;;3.50;99.90;;;;;;4190615;28;20330;-57
2021/12/30 03:30:46;;;;;;;30.80;14.73;;;3.50;99.90;;;;;;4189504;28;20295;-57
2021/12/30 03:32:47;;;;;;;31.10;13.50;;;3.40;99.90;;;;;;4190864;28;20269;-56
2021/12/30 03:34:49;;;;;;;28.40;13.10;;;3.50;99.90;;;;;;4189837;28;20257;-58
2021/12/30 03:36:50;;;;;;;25.57;12.80;;;3.50;99.90;;;;;;4190412;28;20644;-63
2021/12/30 03:38:53;;;;;;;30.30;13.40;;;3.50;99.90;;;;;;4189861;28;20289;-57
2021/12/30 03:40:55;;;;;;;28.00;12.87;;;3.50;99.90;;;;;;4189879;28;20281;-58
2021/12/30 03:42:56;;;;;;;28.03;13.13;;;3.50;99.90;;;;;;4190100;28;20258;-56
2021/12/30 03:45:00;;;;;;;25.73;13.17;;;3.50;99.90;;;;;;4188945;28;20266;-55
2021/12/30 03:47:01;;;;;;;25.23;12.80;;;3.50;99.90;;;;;;4191019;28;20265;-58
2021/12/30 03:49:05;;;;;;;25.57;12.10;;;3.50;99.90;;;;;;4189236;28;20657;-55
2021/12/30 03:51:10;;;;;;;26.53;13.13;;;3.40;99.90;;;;;;4190548;28;20262;-56
2021/12/30 03:53:13;;;;;;;25.83;12.73;;;3.40;99.90;;;;;;4189404;28;20265;-51
2021/12/30 03:55:16;;;;;;;24.17;12.27;;;3.40;99.90;;;;;;4190503;28;20277;-58
2021/12/30 03:57:17;;;;;;;26.03;13.63;;;3.40;99.90;;;;;;4189596;28;20262;-58
2021/12/30 03:59:18;;;;;;;26.13;14.00;;;3.40;99.90;;;;;;4190231;28;20322;-56
2021/12/30 04:01:22;;;;;;;26.23;13.10;;;3.40;99.90;;;;;;4189514;28;20791;-59
2021/12/30 04:03:23;;;;;;;30.57;14.47;;;3.40;99.90;;;;;;4190603;28;20749;-57
2021/12/30 04:05:25;;;;;;;27.33;14.60;;;3.40;99.90;;;;;;4188887;28;20386;-62
2021/12/30 04:07:26;;;;;;;30.13;13.80;;;3.50;99.90;;;;;;4190672;28;20273;-56
2021/12/30 04:09:27;;;;;;;27.83;14.27;;;3.50;99.90;;;;;;4189608;28;20265;-57
2021/12/30 04:11:34;;;;;;;29.00;14.67;;;3.50;99.90;;;;;;4190331;28;20288;-58
2021/12/30 04:13:35;;;;;;;31.33;14.20;;;3.50;99.90;;;;;;4189357;28;20327;-58
2021/12/30 04:15:36;;;;;;;33.20;15.73;;;3.50;99.90;;;;;;4189848;28;20603;-58
2021/12/30 04:17:37;;;;;;;30.30;13.60;;;3.50;99.90;;;;;;4189875;28;20315;-61
2021/12/30 04:19:39;;;;;;;30.90;13.87;;;3.50;99.90;;;;;;4189648;28;20289;-58
2021/12/30 04:21:40;;;;;;;31.00;14.43;;;3.50;99.90;;;;;;4190553;28;20273;-58
2021/12/30 04:23:41;;;;;;;34.53;16.27;;;3.50;99.90;;;;;;4188902;28;21190;-57
2021/12/30 04:25:42;;;;;;;41.37;17.10;;;3.50;99.90;;;;;;4190768;28;20319;-59
2021/12/30 04:27:44;;;;;;;35.50;17.17;;;3.60;99.90;;;;;;4188897;28;20258;-55
2021/12/30 04:29:45;;;;;;;35.70;15.60;;;3.60;99.90;;;;;;4190376;28;20310;-60
2021/12/30 04:31:47;;;;;;;33.27;16.70;;;3.60;99.90;;;;;;4189689;28;20326;-59
2021/12/30 04:33:48;;;;;;;32.20;15.17;;;3.60;99.90;;;;;;4193430;28;20269;-59
2021/12/30 04:35:55;;;;;;;25.57;13.70;;;3.50;99.90;;;;;;4192213;28;20273;-60
2021/12/30 04:37:57;;;;;;;31.87;14.70;;;3.60;99.90;;;;;;4193134;28;20335;-56
2021/12/30 04:39:59;;;;;;;35.33;16.17;;;3.50;99.90;;;;;;4192240;28;20832;-54
2021/12/30 04:42:03;;;;;;;26.93;13.70;;;3.50;99.90;;;;;;4192814;28;20281;-59
2021/12/30 04:44:04;;;;;;;28.60;13.53;;;3.50;99.90;;;;;;4192289;28;20768;-57
2021/12/30 04:46:06;;;;;;;32.37;15.73;;;3.50;99.90;;;;;;4192831;28;20273;-61
2021/12/30 04:48:07;;;;;;;31.87;15.50;;;3.50;99.90;;;;;;4192026;28;20699;-57
2021/12/30 04:50:11;;;;;;;32.87;14.73;;;3.50;99.90;;;;;;4192015;28;20270;-62
2021/12/30 04:52:12;;;;;;;34.33;14.80;;;3.50;99.90;;;;;;4192538;28;20269;-57
2021/12/30 04:54:13;;;;;;;31.13;14.87;;;3.50;99.90;;;;;;4191869;28;20331;-59
2021/12/30 04:56:14;;;;;;;30.37;14.23;;;3.50;99.90;;;;;;4193454;28;20258;-59
2021/12/30 04:58:16;;;;;;;33.17;15.23;;;3.40;99.90;;;;;;4191604;28;20285;-59
2021/12/30 05:00:17;;;;;;;32.77;15.07;;;3.50;99.90;;;;;;4192504;28;20305;-56
2021/12/30 05:02:18;;;;;;;32.53;15.57;;;3.50;99.90;;;;;;4191584;28;20319;-54
2021/12/30 05:04:20;;;;;;;34.13;16.40;;;3.50;99.90;;;;;;4193332;28;20269;-56
2021/12/30 05:06:21;;;;;;;36.57;17.27;;;3.50;99.90;;;;;;4191404;28;20285;-57
2021/12/30 05:08:23;;;;;;;35.40;16.43;;;3.50;99.90;;;;;;4193026;28;20273;-57
2021/12/30 05:10:24;;;;;;;31.53;15.63;;;3.50;99.90;;;;;;4191944;28;20277;-60
2021/12/30 05:12:25;;;;;;;30.03;15.17;;;3.50;99.90;;;;;;4192993;28;20743;-56
2021/12/30 05:14:27;;;;;;;27.43;13.47;;;3.50;99.90;;;;;;4191602;28;20249;-63
2021/12/30 05:16:28;;;;;;;26.77;13.33;;;3.50;99.90;;;;;;4192404;28;20271;-58
2021/12/30 05:18:32;;;;;;;29.17;15.10;;;3.50;99.90;;;;;;4191924;28;20273;-54
2021/12/30 05:20:35;;;;;;;28.90;14.07;;;3.50;99.90;;;;;;4191954;28;21030;-57
2021/12/30 05:22:36;;;;;;;27.30;13.57;;;3.50;99.90;;;;;;4192146;28;20391;-57
2021/12/30 05:24:37;;;;;;;26.37;13.83;;;3.50;99.90;;;;;;4191394;28;20273;-60
2021/12/30 05:26:38;;;;;;;28.80;13.43;;;3.40;99.90;;;;;;4192287;28;20261;-59
2021/12/30 05:28:40;;;;;;;27.83;13.97;;;3.40;99.90;;;;;;4190598;28;20327;-60
2021/12/30 05:30:41;;;;;;;29.90;14.00;;;3.40;99.90;;;;;;4192560;28;20281;-57
2021/12/30 05:32:42;;;;;;;33.97;14.07;;;3.40;99.90;;;;;;4190610;28;20319;-59
2021/12/30 05:34:43;;;;;;;27.20;13.33;;;3.40;99.90;;;;;;4192077;28;20679;-61
2021/12/30 05:36:44;;;;;;;28.27;13.70;;;3.40;99.90;;;;;;4191161;28;20266;-59
2021/12/30 05:38:46;;;;;;;31.00;14.67;;;3.40;99.90;;;;;;4192258;28;20560;-56
2021/12/30 05:40:47;;;;;;;29.43;14.43;;;3.40;99.90;;;;;;4190639;28;20358;-59
2021/12/30 05:42:49;;;;;;;26.70;13.87;;;3.40;99.90;;;;;;4191627;28;20269;-57
2021/12/30 05:44:51;;;;;;;28.80;13.07;;;3.40;99.90;;;;;;4190798;28;20810;-56
2021/12/30 05:46:53;;;;;;;27.17;13.07;;;3.40;99.90;;;;;;4192174;28;20269;-57
2021/12/30 05:48:54;;;;;;;27.60;14.63;;;3.40;99.90;;;;;;4191202;28;20315;-58
2021/12/30 05:50:59;;;;;;;25.80;13.87;;;3.40;99.90;;;;;;4191610;28;20336;-63
2021/12/30 05:53:01;;;;;;;26.90;13.57;;;3.40;99.90;;;;;;4191067;28;20273;-57
2021/12/30 05:55:04;;;;;;;28.97;14.53;;;3.40;99.90;;;;;;4191057;28;20698;-60
2021/12/30 05:57:05;;;;;;;26.13;13.37;;;3.40;99.90;;;;;;4191858;28;20303;-58
2021/12/30 05:59:07;;;;;;;26.93;13.87;;;3.40;99.90;;;;;;4190619;28;20283;-55
2021/12/30 06:01:08;;;;;;;29.50;13.20;;;3.50;99.90;;;;;;4191993;28;20315;-57
2021/12/30 06:03:09;;;;;;;25.50;14.23;;;3.50;99.90;;;;;;4191046;28;20335;-55
2021/12/30 06:05:11;;;;;;;26.67;12.93;;;3.40;99.90;;;;;;4192076;28;20673;-62
2021/12/30 06:07:12;;;;;;;31.87;15.07;;;3.50;99.90;;;;;;4190248;28;20315;-57
2021/12/30 06:09:13;;;;;;;30.20;14.33;;;3.40;99.90;;;;;;4191780;28;20273;-59
2021/12/30 06:11:14;;;;;;;29.90;14.50;;;3.50;99.90;;;;;;4190680;28;20322;-56
2021/12/30 06:13:15;;;;;;;29.13;14.57;;;3.50;99.90;;;;;;4191736;28;20269;-59
2021/12/30 06:15:16;;;;;;;28.77;15.27;;;3.50;99.90;;;;;;4190067;28;20270;-59
2021/12/30 06:17:18;;;;;;;28.80;14.23;;;3.50;99.90;;;;;;4191827;28;20266;-58
2021/12/30 06:19:19;;;;;;;33.13;15.23;;;3.50;99.90;;;;;;4190527;28;20323;-59
2021/12/30 06:21:20;;;;;;;26.17;14.53;;;3.50;99.90;;;;;;4191404;28;20315;-57
2021/12/30 06:23:21;;;;;;;29.13;14.67;;;3.50;99.90;;;;;;4190945;28;20838;-55
2021/12/30 06:25:23;;;;;;;39.53;17.53;;;3.50;99.90;;;;;;4190499;28;20330;-57
2021/12/30 06:27:24;;;;;;;30.37;16.00;;;3.50;99.90;;;;;;4190847;28;20327;-56
2021/12/30 06:29:25;;;;;;;35.20;17.07;;;3.40;99.90;;;;;;4190553;28;20339;-60
2021/12/30 06:31:26;;;;;;;33.83;16.50;;;3.40;99.90;;;;;;4191617;28;20265;-53
2021/12/30 06:33:27;;;;;;;39.37;18.07;;;3.40;99.90;;;;;;4190260;28;20277;-56
2021/12/30 06:35:32;;;;;;;43.87;20.80;;;3.40;99.90;;;;;;4191548;28;20262;-57
2021/12/30 06:37:33;;;;;;;48.57;21.33;;;3.40;99.90;;;;;;4189877;28;20319;-59
2021/12/30 06:39:34;;;;;;;51.87;23.23;;;3.40;99.90;;;;;;4190993;28;20301;-57
2021/12/30 06:41:35;;;;;;;54.07;24.93;;;3.30;99.90;;;;;;4190088;28;20839;-60
2021/12/30 06:43:37;;;;;;;51.33;22.07;;;3.30;99.90;;;;;;4191173;28;20265;-60
2021/12/30 06:45:38;;;;;;;47.43;22.57;;;3.30;99.90;;;;;;4190045;28;20823;-57
2021/12/30 06:47:39;;;;;;;47.30;22.80;;;3.30;99.90;;;;;;4191567;28;20783;-55
2021/12/30 06:49:40;;;;;;;52.70;24.17;;;3.20;99.90;;;;;;4189641;28;20261;-57
2021/12/30 06:51:41;;;;;;;49.30;24.33;;;3.20;99.90;;;;;;4190593;28;20287;-61
2021/12/30 06:53:43;;;;;;;42.47;19.93;;;3.20;99.90;;;;;;4190300;28;20257;-61
2021/12/30 06:55:45;;;;;;;43.67;21.40;;;3.20;99.90;;;;;;4189403;28;20831;-58
2021/12/30 06:57:46;;;;;;;42.50;21.83;;;3.20;99.90;;;;;;4190461;28;20269;-58
2021/12/30 06:59:47;;;;;;;37.63;21.23;;;3.20;99.90;;;;;;4189893;28;20765;-57
2021/12/30 07:01:49;;;;;;;44.77;22.37;;;3.30;99.90;;;;;;4189981;28;20298;-58
2021/12/30 07:03:50;;;;;;;48.30;23.80;;;3.30;99.90;;;;;;4189381;28;20395;-62
2021/12/30 07:05:54;;;;;;;44.53;20.23;;;3.30;99.90;;;;;;4190599;28;20277;-59
2021/12/30 07:07:55;;;;;;;44.13;20.70;;;3.30;99.90;;;;;;4189527;28;20251;-58
2021/12/30 07:09:56;;;;;;;44.23;20.63;;;3.30;99.90;;;;;;4191000;28;20745;-60
2021/12/30 07:11:57;;;;;;;39.73;19.87;;;3.30;99.90;;;;;;4189472;28;20319;-60
2021/12/30 07:13:59;;;;;;;41.17;20.87;;;3.30;99.90;;;;;;4190575;28;20261;-60
2021/12/30 07:16:01;;;;;;;39.90;19.17;;;3.20;99.90;;;;;;4189309;28;20733;-57
2021/12/30 07:18:03;;;;;;;41.60;20.23;;;3.20;99.90;;;;;;4190294;28;20653;-60
2021/12/30 07:20:05;;;;;;;45.23;21.90;;;3.20;99.90;;;;;;4189427;28;20354;-58
2021/12/30 07:22:06;;;;;;;49.60;22.80;;;3.20;99.90;;;;;;4190661;28;20339;-61
2021/12/30 07:24:08;;;;;;;46.13;23.23;;;3.20;99.90;;;;;;4189031;28;20281;-58
2021/12/30 07:26:09;;;;;;;50.63;23.57;;;3.20;99.90;;;;;;4188982;28;20552;-60
2021/12/30 07:28:10;;;;;;;51.73;24.63;;;3.20;99.90;;;;;;4189751;28;20269;-59
2021/12/30 07:30:12;;;;;;;51.30;24.23;;;3.30;99.90;;;;;;4189623;28;20361;-61
2021/12/30 07:32:13;;;;;;;49.07;24.20;;;3.30;99.90;;;;;;4190447;28;20990;-60
2021/12/30 07:34:14;;;;;;;45.40;22.63;;;3.30;99.90;;;;;;4189092;28;20326;-59
2021/12/30 07:36:16;;;;;;;50.50;26.37;;;3.40;99.90;;;;;;4190110;28;21013;-59
2021/12/30 07:38:17;;;;;;;46.53;22.57;;;3.40;99.90;;;;;;4188916;28;20327;-58
2021/12/30 07:40:18;;;;;;;47.03;22.73;;;3.40;99.90;;;;;;4190405;28;20305;-58
2021/12/30 07:42:19;;;;;;;41.80;21.20;;;3.40;99.90;;;;;;4189259;28;20273;-58
2021/12/30 07:44:20;;;;;;;41.23;21.27;;;3.40;99.90;;;;;;4190292;28;20318;-57
2021/12/30 07:46:22;;;;;;;41.20;19.93;;;3.40;99.90;;;;;;4188620;28;20319;-59
2021/12/30 07:48:23;;;;;;;43.40;20.97;;;3.50;99.90;;;;;;4189752;28;20281;-56
2021/12/30 07:50:24;;;;;;;41.17;19.87;;;3.50;99.90;;;;;;4188764;28;20376;-58
2021/12/30 07:52:26;;;;;;;43.10;23.37;;;3.50;99.90;;;;;;4190556;28;20277;-61
2021/12/30 07:54:27;;;;;;;48.07;23.87;;;3.50;99.90;;;;;;4188011;28;20334;-54
2021/12/30 07:56:28;;;;;;;38.57;20.27;;;3.50;99.90;;;;;;4189511;28;20281;-62
2021/12/30 07:58:29;;;;;;;43.57;22.33;;;3.50;99.90;;;;;;4189063;28;20277;-57
2021/12/30 08:00:31;;;;;;;44.77;21.43;;;3.50;99.90;;;;;;4188897;28;21143;-60
2021/12/30 08:02:32;;;;;;;37.67;20.07;;;3.50;99.90;;;;;;4189423;28;20266;-58
2021/12/30 08:04:34;;;;;;;48.00;24.03;;;3.50;99.90;;;;;;4188560;28;20319;-57
2021/12/30 08:06:35;;;;;;;46.03;24.63;;;3.50;99.90;;;;;;4189788;28;20350;-58
2021/12/30 08:08:37;;;;;;;49.27;24.30;;;3.40;99.90;;;;;;4191150;28;20737;-59
2021/12/30 08:10:38;;;;;;;49.83;26.77;;;3.50;99.90;;;;;;4193603;28;20350;-58
2021/12/30 08:12:40;;;;;;;48.87;24.70;;;3.40;99.90;;;;;;4191972;28;20277;-58
2021/12/30 08:14:42;;;;;;;52.07;27.13;;;3.40;99.90;;;;;;4192610;28;20330;-59
2021/12/30 08:16:43;;;;;;;49.93;26.53;;;3.50;99.90;;;;;;4191579;28;20878;-56
2021/12/30 08:18:44;;;;;;;53.23;26.47;;;3.50;99.90;;;;;;4192597;28;20265;-56
2021/12/30 08:20:46;;;;;;;48.27;24.93;;;3.50;99.90;;;;;;4191127;28;20346;-59
2021/12/30 08:22:47;;;;;;;48.40;23.77;;;3.50;99.90;;;;;;4192199;28;20314;-59
2021/12/30 08:24:48;;;;;;;38.83;19.17;;;3.50;99.90;;;;;;4190325;28;20299;-62
2021/12/30 08:26:50;;;;;;;40.73;20.77;;;3.50;99.90;;;;;;4192483;28;20737;-63
2021/12/30 08:28:51;;;;;;;51.50;24.30;;;3.50;99.90;;;;;;4191670;28;20261;-57
2021/12/30 08:30:52;;;;;;;51.43;25.63;;;3.50;99.90;;;;;;4191901;28;20623;-57
2021/12/30 08:32:53;;;;;;;41.90;21.23;;;3.60;99.90;;;;;;4191900;28;20366;-56
2021/12/30 08:34:54;;;;;;;47.20;23.57;;;3.60;99.90;;;;;;4191345;28;20353;-60
2021/12/30 08:36:55;;;;;;;49.97;23.63;;;3.60;99.90;;;;;;4192447;28;20277;-55
2021/12/30 08:38:57;;;;;;;41.90;22.43;;;3.60;99.90;;;;;;4191443;28;20335;-58
2021/12/30 08:40:58;;;;;;;45.20;22.70;;;3.60;99.90;;;;;;4193054;28;20347;-52
2021/12/30 08:42:59;;;;;;;52.43;25.10;;;3.60;99.90;;;;;;4191410;28;20306;-52
2021/12/30 08:45:01;;;;;;;47.97;23.43;;;3.70;99.90;;;;;;4192529;28;20327;-58
2021/12/30 08:47:02;;;;;;;43.57;21.27;;;3.80;99.90;;;;;;4191141;28;20261;-57
2021/12/30 08:49:03;;;;;;;42.73;21.27;;;3.80;99.90;;;;;;4192188;28;20327;-61
2021/12/30 08:51:05;;;;;;;42.27;21.33;;;3.90;99.90;;;;;;4190767;28;20269;-60
2021/12/30 08:53:08;;;;;;;46.17;23.30;;;3.90;99.90;;;;;;4192285;28;20269;-58
2021/12/30 08:55:10;;;;;;;47.07;23.67;;;4.00;99.90;;;;;;4191194;28;20750;-58
2021/12/30 08:57:12;;;;;;;49.17;22.17;;;4.10;99.90;;;;;;4192250;28;20319;-61
2021/12/30 08:59:14;;;;;;;38.23;20.00;;;4.20;99.90;;;;;;4191235;28;20303;-58
2021/12/30 09:01:15;;;;;;;44.77;22.03;;;4.20;99.90;;;;;;4191342;28;20301;-59
2021/12/30 09:03:17;;;;;;;47.97;23.10;;;4.10;99.90;;;;;;4191001;28;20688;-58
2021/12/30 09:05:19;;;;;;;43.33;22.63;;;4.10;99.90;;;;;;4179333;28;20335;-59
2021/12/30 09:07:21;;;;;;;44.27;23.57;;;4.20;99.90;;;;;;4176011;28;20262;-61
2021/12/30 09:09:23;;;;;;;44.00;21.43;;;4.20;99.90;;;;;;4174723;28;20262;-60
2021/12/30 09:11:24;;;;;;;47.93;22.43;;;4.30;99.90;;;;;;4176255;28;20316;-62
2021/12/30 09:13:25;;;;;;;49.53;23.13;;;4.30;99.90;;;;;;4174536;28;20696;-59
2021/12/30 09:15:26;;;;;;;40.07;20.20;;;4.30;99.90;;;;;;4175825;28;20879;-58
2021/12/30 09:17:27;;;;;;;40.77;21.03;;;4.30;99.90;;;;;;4174862;28;20274;-60
2021/12/30 09:19:28;;;;;;;42.00;20.63;;;4.30;99.90;;;;;;4174932;28;20332;-58
2021/12/30 09:21:29;;;;;;;43.57;21.97;;;4.30;99.90;;;;;;4174453;28;20294;-54
2021/12/30 09:23:30;;;;;;;42.57;21.47;;;4.30;99.90;;;;;;4175610;28;20367;-58
2021/12/30 09:25:32;;;;;;;45.80;22.70;;;4.30;99.90;;;;;;4174682;28;21115;-61
2021/12/30 09:27:38;;;;;;;44.03;21.90;;;4.30;99.90;;;;;;4176240;28;20308;-59
2021/12/30 09:29:39;;;;;;;43.03;22.30;;;4.40;99.90;;;;;;4174557;28;20335;-61
2021/12/30 09:31:47;;;;;;;41.60;21.03;;;4.40;99.90;;;;;;4175643;28;20266;-61
2021/12/30 09:33:48;;;;;;;41.20;21.53;;;4.50;99.90;;;;;;4174455;28;20356;-54
2021/12/30 09:35:49;;;;;;;47.00;25.10;;;4.50;99.90;;;;;;4175302;28;20266;-57
2021/12/30 09:37:51;;;;;;;45.67;24.20;;;4.50;99.90;;;;;;4183730;28;20315;-57
2021/12/30 09:39:52;;;;;;;48.20;24.97;;;4.50;99.90;;;;;;4191042;28;21409;-65
2021/12/30 09:41:53;;;;;;;41.90;23.03;;;4.60;99.90;;;;;;4192018;28;20795;-61
2021/12/30 09:43:54;;;;;;;44.67;23.63;;;4.60;99.90;;;;;;4190925;28;20330;-59
2021/12/30 09:45:56;;;;;;;44.23;23.70;;;4.70;99.90;;;;;;4192196;28;20281;-60
2021/12/30 09:47:58;;;;;;;45.10;23.53;;;4.70;99.90;;;;;;4190220;28;20319;-63
2021/12/30 09:50:00;;;;;;;43.53;23.87;;;4.80;99.90;;;;;;4191648;28;20671;-63
2021/12/30 09:52:01;;;;;;;48.00;23.40;;;4.80;99.90;;;;;;4189795;28;20336;-64
2021/12/30 09:54:04;;;;;;;39.97;22.87;;;4.90;99.90;;;;;;4191533;28;20269;-60
2021/12/30 09:56:05;;;;;;;49.37;24.27;;;4.90;99.90;;;;;;4190103;28;20327;-60
2021/12/30 09:58:07;;;;;;;46.47;25.67;;;4.90;99.90;;;;;;4191787;28;20257;-60
2021/12/30 10:00:12;;;;;;;50.30;27.27;;;5.00;99.90;;;;;;4189631;28;20265;-57
2021/12/30 10:02:13;;;;;;;52.87;27.30;;;5.00;99.90;;;;;;4191345;28;20803;-58
2021/12/30 10:04:14;;;;;;;51.67;26.67;;;5.10;99.90;;;;;;4189990;28;20278;-59
2021/12/30 10:06:17;;;;;;;39.60;23.97;;;5.10;99.90;;;;;;4191189;28;20269;-59
2021/12/30 10:08:24;;;;;;;40.30;23.50;;;5.10;99.90;;;;;;4190728;28;20261;-57
2021/12/30 10:10:38;;;;;;;45.70;24.00;;;5.10;99.90;;;;;;4190970;28;20273;-59
2021/12/30 10:12:44;;;;;;;47.27;23.93;;;5.10;99.90;;;;;;4190029;28;20611;-61
2021/12/30 10:14:52;;;;;;;47.37;24.97;;;5.00;99.90;;;;;;4190535;28;20265;-60
2021/12/30 10:17:13;;;;;;;46.70;24.93;;;5.00;99.90;;;;;;4190425;28;20374;-61
2021/12/30 10:19:14;;;;;;;43.15;22.83;;;5.00;99.90;;;;;;4190465;28;20089;-61
2021/12/30 10:21:30;;;;;;;47.63;23.17;;;5.10;99.90;;;;;;4190040;28;20053;-57
2021/12/30 10:23:32;;;;;;;46.13;24.43;;;5.10;99.90;;;;;;4190586;28;20280;-59
2021/12/30 10:25:36;;;;;;;39.27;21.80;;;5.10;99.90;;;;;;4185946;28;20289;-61